sensor_id;sensor_type;location;lat;lon;timestamp;pressure;altitude;pressure_sealevel;temperature
15079;BMP180;6932;51.438;5.470;2022-11-20T00:01:15;100889.00;;;7.60
15079;BMP180;6932;51.438;5.470;2022-11-20T00:03:42;100875.00;;;7.50
15079;BMP180;6932;51.438;5.470;2022-11-20T00:06:12;100873.00;;;7.60
15079;BMP180;6932;51.438;5.470;2022-11-20T00:08:39;100878.00;;;7.50
15079;BMP180;6932;51.438;5.470;2022-11-20T00:11:11;100888.00;;;7.50
15079;BMP180;6932;51.438;5.470;2022-11-20T00:13:38;100880.00;;;7.50
15079;BMP180;6932;51.438;5.470;2022-11-20T00:16:08;100892.00;;;7.50
15079;BMP180;6932;51.438;5.470;2022-11-20T00:18:35;100888.00;;;7.50
15079;BMP180;6932;51.438;5.470;2022-11-20T00:21:04;100876.00;;;7.50
15079;BMP180;6932;51.438;5.470;2022-11-20T00:23:31;100877.00;;;7.50
15079;BMP180;6932;51.438;5.470;2022-11-20T00:26:05;100873.00;;;7.50
15079;BMP180;6932;51.438;5.470;2022-11-20T00:28:31;100872.00;;;7.50
15079;BMP180;6932;51.438;5.470;2022-11-20T00:31:07;100886.00;;;7.50
15079;BMP180;6932;51.438;5.470;2022-11-20T00:33:33;100870.00;;;7.40
15079;BMP180;6932;51.438;5.470;2022-11-20T00:36:05;100878.00;;;7.40
15079;BMP180;6932;51.438;5.470;2022-11-20T00:38:32;100867.00;;;7.40
15079;BMP180;6932;51.438;5.470;2022-11-20T00:41:00;100874.00;;;7.40
15079;BMP180;6932;51.438;5.470;2022-11-20T00:43:27;100884.00;;;7.40
15079;BMP180;6932;51.438;5.470;2022-11-20T00:46:01;100879.00;;;7.40
15079;BMP180;6932;51.438;5.470;2022-11-20T00:48:27;100871.00;;;7.30
15079;BMP180;6932;51.438;5.470;2022-11-20T00:50:56;100877.00;;;7.40
15079;BMP180;6932;51.438;5.470;2022-11-20T00:53:22;100866.00;;;7.40
15079;BMP180;6932;51.438;5.470;2022-11-20T00:56:04;100868.00;;;7.30
15079;BMP180;6932;51.438;5.470;2022-11-20T00:58:38;100869.00;;;7.40
15079;BMP180;6932;51.438;5.470;2022-11-20T01:01:10;100877.00;;;7.30
15079;BMP180;6932;51.438;5.470;2022-11-20T01:03:40;100874.00;;;7.40
15079;BMP180;6932;51.438;5.470;2022-11-20T01:06:12;100868.00;;;7.40
15079;BMP180;6932;51.438;5.470;2022-11-20T01:08:39;100870.00;;;7.40
15079;BMP180;6932;51.438;5.470;2022-11-20T01:11:24;100875.00;;;7.30
15079;BMP180;6932;51.438;5.470;2022-11-20T01:13:52;100874.00;;;7.30
15079;BMP180;6932;51.438;5.470;2022-11-20T01:16:29;100865.00;;;7.40
15079;BMP180;6932;51.438;5.470;2022-11-20T01:18:59;100874.00;;;7.30
15079;BMP180;6932;51.438;5.470;2022-11-20T01:21:32;100867.00;;;7.30
15079;BMP180;6932;51.438;5.470;2022-11-20T01:24:01;100865.00;;;7.30
15079;BMP180;6932;51.438;5.470;2022-11-20T01:26:34;100869.00;;;7.30
15079;BMP180;6932;51.438;5.470;2022-11-20T01:29:02;100871.00;;;7.30
15079;BMP180;6932;51.438;5.470;2022-11-20T01:31:37;100868.00;;;7.30
15079;BMP180;6932;51.438;5.470;2022-11-20T01:34:09;100874.00;;;7.30
15079;BMP180;6932;51.438;5.470;2022-11-20T01:36:38;100863.00;;;7.30
15079;BMP180;6932;51.438;5.470;2022-11-20T01:39:12;100863.00;;;7.30
15079;BMP180;6932;51.438;5.470;2022-11-20T01:41:39;100863.00;;;7.30
15079;BMP180;6932;51.438;5.470;2022-11-20T01:44:55;100859.00;;;7.30
15079;BMP180;6932;51.438;5.470;2022-11-20T01:50:22;100878.00;;;7.40
15079;BMP180;6932;51.438;5.470;2022-11-20T01:53:14;100865.00;;;7.40
15079;BMP180;6932;51.438;5.470;2022-11-20T01:55:51;100869.00;;;7.40
15079;BMP180;6932;51.438;5.470;2022-11-20T01:58:28;100871.00;;;7.40
15079;BMP180;6932;51.438;5.470;2022-11-20T02:00:56;100869.00;;;7.40
15079;BMP180;6932;51.438;5.470;2022-11-20T02:03:22;100869.00;;;7.50
15079;BMP180;6932;51.438;5.470;2022-11-20T02:06:29;100864.00;;;7.50
15079;BMP180;6932;51.438;5.470;2022-11-20T02:08:56;100860.00;;;7.50
15079;BMP180;6932;51.438;5.470;2022-11-20T02:11:22;100856.00;;;7.50
15079;BMP180;6932;51.438;5.470;2022-11-20T02:13:49;100848.00;;;7.50
15079;BMP180;6932;51.438;5.470;2022-11-20T02:16:32;100850.00;;;7.60
15079;BMP180;6932;51.438;5.470;2022-11-20T02:19:01;100845.00;;;7.60
15079;BMP180;6932;51.438;5.470;2022-11-20T02:21:47;100846.00;;;7.60
15079;BMP180;6932;51.438;5.470;2022-11-20T02:24:17;100844.00;;;7.60
15079;BMP180;6932;51.438;5.470;2022-11-20T02:27:02;100853.00;;;7.60
15079;BMP180;6932;51.438;5.470;2022-11-20T02:29:42;100855.00;;;7.60
15079;BMP180;6932;51.438;5.470;2022-11-20T02:32:29;100843.00;;;7.60
15079;BMP180;6932;51.438;5.470;2022-11-20T02:34:55;100844.00;;;7.60
15079;BMP180;6932;51.438;5.470;2022-11-20T02:37:23;100854.00;;;7.70
15079;BMP180;6932;51.438;5.470;2022-11-20T02:39:52;100846.00;;;7.70
15079;BMP180;6932;51.438;5.470;2022-11-20T02:42:18;100849.00;;;7.70
15079;BMP180;6932;51.438;5.470;2022-11-20T02:44:44;100833.00;;;7.70
15079;BMP180;6932;51.438;5.470;2022-11-20T02:47:10;100843.00;;;7.70
15079;BMP180;6932;51.438;5.470;2022-11-20T02:49:36;100844.00;;;7.80
15079;BMP180;6932;51.438;5.470;2022-11-20T02:52:02;100846.00;;;7.80
15079;BMP180;6932;51.438;5.470;2022-11-20T02:54:28;100851.00;;;7.80
15079;BMP180;6932;51.438;5.470;2022-11-20T02:56:54;100844.00;;;7.80
15079;BMP180;6932;51.438;5.470;2022-11-20T02:59:22;100847.00;;;7.80
15079;BMP180;6932;51.438;5.470;2022-11-20T03:01:48;100837.00;;;7.80
15079;BMP180;6932;51.438;5.470;2022-11-20T03:04:14;100837.00;;;7.80
15079;BMP180;6932;51.438;5.470;2022-11-20T03:06:40;100839.00;;;7.80
15079;BMP180;6932;51.438;5.470;2022-11-20T03:09:05;100834.00;;;7.70
15079;BMP180;6932;51.438;5.470;2022-11-20T03:11:34;100833.00;;;7.70
15079;BMP180;6932;51.438;5.470;2022-11-20T03:14:03;100850.00;;;7.70
15079;BMP180;6932;51.438;5.470;2022-11-20T03:16:31;100848.00;;;7.70
15079;BMP180;6932;51.438;5.470;2022-11-20T03:18:58;100844.00;;;7.70
15079;BMP180;6932;51.438;5.470;2022-11-20T03:21:24;100851.00;;;7.70
15079;BMP180;6932;51.438;5.470;2022-11-20T03:23:53;100830.00;;;7.70
15079;BMP180;6932;51.438;5.470;2022-11-20T03:26:24;100830.00;;;7.70
15079;BMP180;6932;51.438;5.470;2022-11-20T03:28:59;100831.00;;;7.70
15079;BMP180;6932;51.438;5.470;2022-11-20T03:31:33;100818.00;;;7.70
15079;BMP180;6932;51.438;5.470;2022-11-20T03:34:00;100828.00;;;7.70
15079;BMP180;6932;51.438;5.470;2022-11-20T03:36:26;100819.00;;;7.70
15079;BMP180;6932;51.438;5.470;2022-11-20T03:38:57;100821.00;;;7.70
15079;BMP180;6932;51.438;5.470;2022-11-20T03:41:30;100820.00;;;7.70
15079;BMP180;6932;51.438;5.470;2022-11-20T03:44:03;100809.00;;;7.70
15079;BMP180;6932;51.438;5.470;2022-11-20T03:46:30;100801.00;;;7.70
15079;BMP180;6932;51.438;5.470;2022-11-20T03:48:56;100802.00;;;7.70
15079;BMP180;6932;51.438;5.470;2022-11-20T03:51:32;100803.00;;;7.70
15079;BMP180;6932;51.438;5.470;2022-11-20T03:54:04;100804.00;;;7.70
15079;BMP180;6932;51.438;5.470;2022-11-20T03:56:34;100803.00;;;7.70
15079;BMP180;6932;51.438;5.470;2022-11-20T03:59:03;100800.00;;;7.70
15079;BMP180;6932;51.438;5.470;2022-11-20T04:01:33;100790.00;;;7.70
15079;BMP180;6932;51.438;5.470;2022-11-20T04:03:59;100799.00;;;7.70
15079;BMP180;6932;51.438;5.470;2022-11-20T04:06:29;100794.00;;;7.70
15079;BMP180;6932;51.438;5.470;2022-11-20T04:08:59;100789.00;;;7.70
15079;BMP180;6932;51.438;5.470;2022-11-20T04:11:28;100787.00;;;7.70
15079;BMP180;6932;51.438;5.470;2022-11-20T04:14:03;100790.00;;;7.70
15079;BMP180;6932;51.438;5.470;2022-11-20T04:16:33;100803.00;;;7.70
15079;BMP180;6932;51.438;5.470;2022-11-20T04:19:05;100796.00;;;7.70
15079;BMP180;6932;51.438;5.470;2022-11-20T04:21:31;100797.00;;;7.70
15079;BMP180;6932;51.438;5.470;2022-11-20T04:23:57;100794.00;;;7.70
15079;BMP180;6932;51.438;5.470;2022-11-20T04:26:26;100785.00;;;7.70
15079;BMP180;6932;51.438;5.470;2022-11-20T04:28:52;100786.00;;;7.70
15079;BMP180;6932;51.438;5.470;2022-11-20T04:31:25;100785.00;;;7.70
15079;BMP180;6932;51.438;5.470;2022-11-20T04:33:51;100795.00;;;7.70
15079;BMP180;6932;51.438;5.470;2022-11-20T04:36:23;100785.00;;;7.80
15079;BMP180;6932;51.438;5.470;2022-11-20T04:38:58;100787.00;;;7.80
15079;BMP180;6932;51.438;5.470;2022-11-20T04:41:28;100788.00;;;7.80
15079;BMP180;6932;51.438;5.470;2022-11-20T04:43:57;100787.00;;;7.80
15079;BMP180;6932;51.438;5.470;2022-11-20T04:46:32;100780.00;;;7.80
15079;BMP180;6932;51.438;5.470;2022-11-20T04:48:59;100779.00;;;7.80
15079;BMP180;6932;51.438;5.470;2022-11-20T04:51:26;100779.00;;;7.80
15079;BMP180;6932;51.438;5.470;2022-11-20T04:53:52;100782.00;;;7.90
15079;BMP180;6932;51.438;5.470;2022-11-20T04:56:18;100771.00;;;7.90
15079;BMP180;6932;51.438;5.470;2022-11-20T04:58:44;100770.00;;;7.90
15079;BMP180;6932;51.438;5.470;2022-11-20T05:01:14;100770.00;;;7.90
15079;BMP180;6932;51.438;5.470;2022-11-20T05:03:41;100766.00;;;8.00
15079;BMP180;6932;51.438;5.470;2022-11-20T05:06:10;100770.00;;;8.00
15079;BMP180;6932;51.438;5.470;2022-11-20T05:08:37;100789.00;;;8.00
15079;BMP180;6932;51.438;5.470;2022-11-20T05:11:06;100758.00;;;8.00
15079;BMP180;6932;51.438;5.470;2022-11-20T05:13:32;100769.00;;;8.00
15079;BMP180;6932;51.438;5.470;2022-11-20T05:16:04;100743.00;;;8.00
15079;BMP180;6932;51.438;5.470;2022-11-20T05:18:30;100761.00;;;8.00
15079;BMP180;6932;51.438;5.470;2022-11-20T05:20:57;100761.00;;;8.00
15079;BMP180;6932;51.438;5.470;2022-11-20T05:23:24;100741.00;;;8.00
15079;BMP180;6932;51.438;5.470;2022-11-20T05:25:55;100745.00;;;8.00
15079;BMP180;6932;51.438;5.470;2022-11-20T05:28:22;100756.00;;;8.00
15079;BMP180;6932;51.438;5.470;2022-11-20T05:30:49;100746.00;;;8.00
15079;BMP180;6932;51.438;5.470;2022-11-20T05:33:15;100761.00;;;8.00
15079;BMP180;6932;51.438;5.470;2022-11-20T05:35:41;100757.00;;;8.00
15079;BMP180;6932;51.438;5.470;2022-11-20T05:38:07;100750.00;;;8.00
15079;BMP180;6932;51.438;5.470;2022-11-20T05:40:33;100741.00;;;8.00
15079;BMP180;6932;51.438;5.470;2022-11-20T05:43:00;100751.00;;;8.00
15079;BMP180;6932;51.438;5.470;2022-11-20T05:45:26;100750.00;;;8.00
15079;BMP180;6932;51.438;5.470;2022-11-20T05:47:52;100754.00;;;8.00
15079;BMP180;6932;51.438;5.470;2022-11-20T05:50:18;100771.00;;;8.00
15079;BMP180;6932;51.438;5.470;2022-11-20T05:52:47;100767.00;;;8.00
15079;BMP180;6932;51.438;5.470;2022-11-20T05:55:15;100761.00;;;8.00
15079;BMP180;6932;51.438;5.470;2022-11-20T05:57:41;100775.00;;;8.00
15079;BMP180;6932;51.438;5.470;2022-11-20T06:00:10;100765.00;;;8.00
15079;BMP180;6932;51.438;5.470;2022-11-20T06:02:38;100766.00;;;7.90
15079;BMP180;6932;51.438;5.470;2022-11-20T06:05:04;100784.00;;;8.00
15079;BMP180;6932;51.438;5.470;2022-11-20T06:07:30;100787.00;;;8.00
15079;BMP180;6932;51.438;5.470;2022-11-20T06:09:56;100789.00;;;8.10
15079;BMP180;6932;51.438;5.470;2022-11-20T06:12:22;100800.00;;;8.10
15079;BMP180;6932;51.438;5.470;2022-11-20T06:14:48;100782.00;;;8.10
15079;BMP180;6932;51.438;5.470;2022-11-20T06:17:14;100773.00;;;8.10
15079;BMP180;6932;51.438;5.470;2022-11-20T06:19:39;100778.00;;;8.10
15079;BMP180;6932;51.438;5.470;2022-11-20T06:22:05;100770.00;;;8.10
15079;BMP180;6932;51.438;5.470;2022-11-20T06:24:31;100770.00;;;8.10
15079;BMP180;6932;51.438;5.470;2022-11-20T06:26:57;100765.00;;;8.10
15079;BMP180;6932;51.438;5.470;2022-11-20T06:29:23;100774.00;;;8.10
15079;BMP180;6932;51.438;5.470;2022-11-20T06:31:49;100771.00;;;8.10
15079;BMP180;6932;51.438;5.470;2022-11-20T06:34:14;100782.00;;;8.10
15079;BMP180;6932;51.438;5.470;2022-11-20T06:36:40;100784.00;;;8.10
15079;BMP180;6932;51.438;5.470;2022-11-20T06:39:06;100769.00;;;8.10
15079;BMP180;6932;51.438;5.470;2022-11-20T06:41:32;100762.00;;;8.10
15079;BMP180;6932;51.438;5.470;2022-11-20T06:43:58;100769.00;;;8.10
15079;BMP180;6932;51.438;5.470;2022-11-20T06:46:24;100764.00;;;8.10
15079;BMP180;6932;51.438;5.470;2022-11-20T06:48:50;100772.00;;;8.10
15079;BMP180;6932;51.438;5.470;2022-11-20T06:51:17;100767.00;;;8.00
15079;BMP180;6932;51.438;5.470;2022-11-20T06:53:43;100770.00;;;8.00
15079;BMP180;6932;51.438;5.470;2022-11-20T06:56:08;100761.00;;;8.10
15079;BMP180;6932;51.438;5.470;2022-11-20T06:58:35;100751.00;;;8.00
15079;BMP180;6932;51.438;5.470;2022-11-20T07:01:14;100758.00;;;8.00
15079;BMP180;6932;51.438;5.470;2022-11-20T07:03:44;100761.00;;;8.10
15079;BMP180;6932;51.438;5.470;2022-11-20T07:06:10;100757.00;;;8.00
15079;BMP180;6932;51.438;5.470;2022-11-20T07:08:36;100759.00;;;8.00
15079;BMP180;6932;51.438;5.470;2022-11-20T07:11:06;100772.00;;;8.10
15079;BMP180;6932;51.438;5.470;2022-11-20T07:13:34;100767.00;;;8.00
15079;BMP180;6932;51.438;5.470;2022-11-20T07:16:03;100747.00;;;8.00
15079;BMP180;6932;51.438;5.470;2022-11-20T07:18:32;100750.00;;;8.10
15079;BMP180;6932;51.438;5.470;2022-11-20T07:21:07;100758.00;;;8.00
15079;BMP180;6932;51.438;5.470;2022-11-20T07:23:34;100750.00;;;8.00
15079;BMP180;6932;51.438;5.470;2022-11-20T07:26:12;100743.00;;;8.10
15079;BMP180;6932;51.438;5.470;2022-11-20T07:28:38;100756.00;;;8.00
15079;BMP180;6932;51.438;5.470;2022-11-20T07:31:05;100753.00;;;8.00
15079;BMP180;6932;51.438;5.470;2022-11-20T07:33:32;100768.00;;;8.10
15079;BMP180;6932;51.438;5.470;2022-11-20T07:36:01;100756.00;;;8.10
15079;BMP180;6932;51.438;5.470;2022-11-20T07:38:27;100759.00;;;8.10
15079;BMP180;6932;51.438;5.470;2022-11-20T07:40:57;100737.00;;;8.00
15079;BMP180;6932;51.438;5.470;2022-11-20T07:43:26;100746.00;;;8.00
15079;BMP180;6932;51.438;5.470;2022-11-20T07:45:55;100747.00;;;8.00
15079;BMP180;6932;51.438;5.470;2022-11-20T07:48:22;100756.00;;;8.00
15079;BMP180;6932;51.438;5.470;2022-11-20T07:50:48;100745.00;;;8.10
15079;BMP180;6932;51.438;5.470;2022-11-20T07:53:14;100751.00;;;8.10
15079;BMP180;6932;51.438;5.470;2022-11-20T07:55:46;100759.00;;;8.10
15079;BMP180;6932;51.438;5.470;2022-11-20T07:58:12;100752.00;;;8.10
15079;BMP180;6932;51.438;5.470;2022-11-20T08:00:40;100749.00;;;8.10
15079;BMP180;6932;51.438;5.470;2022-11-20T08:03:08;100768.00;;;8.10
15079;BMP180;6932;51.438;5.470;2022-11-20T08:05:44;100751.00;;;8.20
15079;BMP180;6932;51.438;5.470;2022-11-20T08:08:10;100752.00;;;8.20
15079;BMP180;6932;51.438;5.470;2022-11-20T08:10:36;100763.00;;;8.20
15079;BMP180;6932;51.438;5.470;2022-11-20T08:13:02;100756.00;;;8.20
15079;BMP180;6932;51.438;5.470;2022-11-20T08:15:50;100760.00;;;8.20
15079;BMP180;6932;51.438;5.470;2022-11-20T08:18:18;100764.00;;;8.20
15079;BMP180;6932;51.438;5.470;2022-11-20T08:20:46;100751.00;;;8.20
15079;BMP180;6932;51.438;5.470;2022-11-20T08:23:15;100753.00;;;8.20
15079;BMP180;6932;51.438;5.470;2022-11-20T08:25:49;100740.00;;;8.20
15079;BMP180;6932;51.438;5.470;2022-11-20T08:28:16;100752.00;;;8.30
15079;BMP180;6932;51.438;5.470;2022-11-20T08:30:42;100755.00;;;8.20
15079;BMP180;6932;51.438;5.470;2022-11-20T08:33:09;100759.00;;;8.30
15079;BMP180;6932;51.438;5.470;2022-11-20T08:35:36;100756.00;;;8.30
15079;BMP180;6932;51.438;5.470;2022-11-20T08:38:06;100747.00;;;8.30
15079;BMP180;6932;51.438;5.470;2022-11-20T08:40:32;100752.00;;;8.40
15079;BMP180;6932;51.438;5.470;2022-11-20T08:42:59;100742.00;;;8.40
15079;BMP180;6932;51.438;5.470;2022-11-20T08:45:24;100752.00;;;8.40
15079;BMP180;6932;51.438;5.470;2022-11-20T08:47:50;100738.00;;;8.50
15079;BMP180;6932;51.438;5.470;2022-11-20T08:50:17;100741.00;;;8.50
15079;BMP180;6932;51.438;5.470;2022-11-20T08:52:45;100749.00;;;8.50
15079;BMP180;6932;51.438;5.470;2022-11-20T08:55:14;100738.00;;;8.60
15079;BMP180;6932;51.438;5.470;2022-11-20T08:57:43;100741.00;;;8.60
15079;BMP180;6932;51.438;5.470;2022-11-20T09:00:11;100753.00;;;8.60
15079;BMP180;6932;51.438;5.470;2022-11-20T09:02:42;100751.00;;;8.60
15079;BMP180;6932;51.438;5.470;2022-11-20T09:05:08;100761.00;;;8.70
15079;BMP180;6932;51.438;5.470;2022-11-20T09:07:34;100740.00;;;8.70
15079;BMP180;6932;51.438;5.470;2022-11-20T09:10:00;100747.00;;;8.70
15079;BMP180;6932;51.438;5.470;2022-11-20T09:12:25;100744.00;;;8.80
15079;BMP180;6932;51.438;5.470;2022-11-20T09:14:53;100729.00;;;8.80
15079;BMP180;6932;51.438;5.470;2022-11-20T09:17:19;100728.00;;;8.90
15079;BMP180;6932;51.438;5.470;2022-11-20T09:19:46;100731.00;;;8.90
15079;BMP180;6932;51.438;5.470;2022-11-20T09:22:14;100729.00;;;8.90
15079;BMP180;6932;51.438;5.470;2022-11-20T09:24:40;100724.00;;;9.00
15079;BMP180;6932;51.438;5.470;2022-11-20T09:27:06;100712.00;;;9.00
15079;BMP180;6932;51.438;5.470;2022-11-20T09:29:32;100715.00;;;9.00
15079;BMP180;6932;51.438;5.470;2022-11-20T09:31:58;100710.00;;;9.00
15079;BMP180;6932;51.438;5.470;2022-11-20T09:34:26;100707.00;;;9.10
15079;BMP180;6932;51.438;5.470;2022-11-20T09:36:52;100703.00;;;9.10
15079;BMP180;6932;51.438;5.470;2022-11-20T09:39:17;100707.00;;;9.10
15079;BMP180;6932;51.438;5.470;2022-11-20T09:42:27;100700.00;;;9.20
15079;BMP180;6932;51.438;5.470;2022-11-20T09:45:29;100699.00;;;9.10
15079;BMP180;6932;51.438;5.470;2022-11-20T09:48:33;100710.00;;;9.20
15079;BMP180;6932;51.438;5.470;2022-11-20T09:56:39;100683.00;;;9.20
15079;BMP180;6932;51.438;5.470;2022-11-20T09:59:19;100683.00;;;9.20
15079;BMP180;6932;51.438;5.470;2022-11-20T10:01:48;100676.00;;;9.20
15079;BMP180;6932;51.438;5.470;2022-11-20T10:04:20;100682.00;;;9.30
15079;BMP180;6932;51.438;5.470;2022-11-20T10:07:13;100678.00;;;9.30
15079;BMP180;6932;51.438;5.470;2022-11-20T10:09:56;100663.00;;;9.30
15079;BMP180;6932;51.438;5.470;2022-11-20T10:12:33;100658.00;;;9.30
15079;BMP180;6932;51.438;5.470;2022-11-20T10:30:15;100540.00;;;9.30
15079;BMP180;6932;51.438;5.470;2022-11-20T10:33:13;100533.00;;;9.00
15079;BMP180;6932;51.438;5.470;2022-11-20T10:36:10;100545.00;;;8.80
15079;BMP180;6932;51.438;5.470;2022-11-20T10:38:47;100539.00;;;8.60
15079;BMP180;6932;51.438;5.470;2022-11-20T10:41:41;100523.00;;;8.40
15079;BMP180;6932;51.438;5.470;2022-11-20T10:44:24;100511.00;;;8.30
15079;BMP180;6932;51.438;5.470;2022-11-20T10:47:18;100513.00;;;8.20
15079;BMP180;6932;51.438;5.470;2022-11-20T10:49:51;100494.00;;;8.20
15079;BMP180;6932;51.438;5.470;2022-11-20T10:55:27;100499.00;;;8.20
15079;BMP180;6932;51.438;5.470;2022-11-20T11:01:17;100478.00;;;8.10
15079;BMP180;6932;51.438;5.470;2022-11-20T11:04:04;100479.00;;;8.10
15079;BMP180;6932;51.438;5.470;2022-11-20T11:06:46;100464.00;;;8.10
15079;BMP180;6932;51.438;5.470;2022-11-20T11:09:26;100470.00;;;8.20
15079;BMP180;6932;51.438;5.470;2022-11-20T11:11:56;100475.00;;;8.20
15079;BMP180;6932;51.438;5.470;2022-11-20T11:14:22;100484.00;;;8.20
15079;BMP180;6932;51.438;5.470;2022-11-20T11:16:57;100466.00;;;8.20
15079;BMP180;6932;51.438;5.470;2022-11-20T11:19:23;100463.00;;;8.30
15079;BMP180;6932;51.438;5.470;2022-11-20T11:21:56;100453.00;;;8.30
15079;BMP180;6932;51.438;5.470;2022-11-20T11:24:26;100449.00;;;8.30
15079;BMP180;6932;51.438;5.470;2022-11-20T11:27:02;100542.00;;;8.30
15079;BMP180;6932;51.438;5.470;2022-11-20T11:29:33;100544.00;;;8.40
15079;BMP180;6932;51.438;5.470;2022-11-20T11:32:12;100549.00;;;8.60
15079;BMP180;6932;51.438;5.470;2022-11-20T11:35:03;100544.00;;;8.90
15079;BMP180;6932;51.438;5.470;2022-11-20T11:37:39;100543.00;;;9.10
15079;BMP180;6932;51.438;5.470;2022-11-20T11:40:09;100529.00;;;9.20
15079;BMP180;6932;51.438;5.470;2022-11-20T11:42:59;100536.00;;;9.40
15079;BMP180;6932;51.438;5.470;2022-11-20T11:45:28;100532.00;;;9.50
15079;BMP180;6932;51.438;5.470;2022-11-20T11:47:57;100508.00;;;9.60
15079;BMP180;6932;51.438;5.470;2022-11-20T11:50:27;100508.00;;;9.70
15079;BMP180;6932;51.438;5.470;2022-11-20T11:53:18;100503.00;;;9.80
15079;BMP180;6932;51.438;5.470;2022-11-20T11:56:05;100491.00;;;9.90
15079;BMP180;6932;51.438;5.470;2022-11-20T11:58:50;100480.00;;;10.00
15079;BMP180;6932;51.438;5.470;2022-11-20T12:01:42;100487.00;;;10.00
15079;BMP180;6932;51.438;5.470;2022-11-20T12:04:43;100486.00;;;10.10
15079;BMP180;6932;51.438;5.470;2022-11-20T12:07:20;100477.00;;;10.10
15079;BMP180;6932;51.438;5.470;2022-11-20T12:09:54;100454.00;;;10.20
15079;BMP180;6932;51.438;5.470;2022-11-20T12:12:35;100451.00;;;10.30
15079;BMP180;6932;51.438;5.470;2022-11-20T12:15:09;100450.00;;;10.30
15079;BMP180;6932;51.438;5.470;2022-11-20T12:17:37;100442.00;;;10.30
15079;BMP180;6932;51.438;5.470;2022-11-20T12:20:05;100434.00;;;10.40
15079;BMP180;6932;51.438;5.470;2022-11-20T12:22:38;100420.00;;;10.40
15079;BMP180;6932;51.438;5.470;2022-11-20T12:25:19;100428.00;;;10.40
15079;BMP180;6932;51.438;5.470;2022-11-20T12:31:01;100413.00;;;10.50
15079;BMP180;6932;51.438;5.470;2022-11-20T12:33:54;100412.00;;;10.50
15079;BMP180;6932;51.438;5.470;2022-11-20T12:37:21;100397.00;;;10.50
15079;BMP180;6932;51.438;5.470;2022-11-20T12:39:50;100390.00;;;10.50
15079;BMP180;6932;51.438;5.470;2022-11-20T12:45:34;100399.00;;;10.60
15079;BMP180;6932;51.438;5.470;2022-11-20T12:51:50;100373.00;;;10.70
15079;BMP180;6932;51.438;5.470;2022-11-20T12:57:47;100359.00;;;10.80
15079;BMP180;6932;51.438;5.470;2022-11-20T13:00:19;100346.00;;;10.80
15079;BMP180;6932;51.438;5.470;2022-11-20T13:06:15;100338.00;;;10.90
15079;BMP180;6932;51.438;5.470;2022-11-20T13:08:53;100331.00;;;10.90
15079;BMP180;6932;51.438;5.470;2022-11-20T13:14:38;100321.00;;;11.00
15079;BMP180;6932;51.438;5.470;2022-11-20T13:17:34;100318.00;;;11.10
15079;BMP180;6932;51.438;5.470;2022-11-20T13:20:06;100310.00;;;11.10
15079;BMP180;6932;51.438;5.470;2022-11-20T13:22:54;100302.00;;;11.10
15079;BMP180;6932;51.438;5.470;2022-11-20T13:25:35;100296.00;;;11.20
15079;BMP180;6932;51.438;5.470;2022-11-20T13:30:49;100289.00;;;11.20
15079;BMP180;6932;51.438;5.470;2022-11-20T13:33:43;100280.00;;;11.30
15079;BMP180;6932;51.438;5.470;2022-11-20T13:36:27;100273.00;;;11.30
15079;BMP180;6932;51.438;5.470;2022-11-20T13:38:56;100276.00;;;11.30
15079;BMP180;6932;51.438;5.470;2022-11-20T13:41:36;100266.00;;;11.30
15079;BMP180;6932;51.438;5.470;2022-11-20T13:44:35;100241.00;;;11.40
15079;BMP180;6932;51.438;5.470;2022-11-20T13:47:04;100245.00;;;11.40
15079;BMP180;6932;51.438;5.470;2022-11-20T13:49:45;100252.00;;;11.40
15079;BMP180;6932;51.438;5.470;2022-11-20T13:52:54;100248.00;;;11.50
15079;BMP180;6932;51.438;5.470;2022-11-20T13:55:51;100241.00;;;11.50
15079;BMP180;6932;51.438;5.470;2022-11-20T14:01:32;100232.00;;;11.50
15079;BMP180;6932;51.438;5.470;2022-11-20T14:03:58;100241.00;;;11.50
15079;BMP180;6932;51.438;5.470;2022-11-20T14:06:31;100232.00;;;11.60
15079;BMP180;6932;51.438;5.470;2022-11-20T14:09:00;100215.00;;;11.60
15079;BMP180;6932;51.438;5.470;2022-11-20T14:11:29;100216.00;;;11.60
15079;BMP180;6932;51.438;5.470;2022-11-20T14:14:13;100205.00;;;11.60
15079;BMP180;6932;51.438;5.470;2022-11-20T14:16:45;100215.00;;;11.70
15079;BMP180;6932;51.438;5.470;2022-11-20T14:21:53;100194.00;;;11.70
15079;BMP180;6932;51.438;5.470;2022-11-20T14:24:29;100195.00;;;11.70
15079;BMP180;6932;51.438;5.470;2022-11-20T14:26:55;100183.00;;;11.70
15079;BMP180;6932;51.438;5.470;2022-11-20T14:29:27;100182.00;;;11.70
15079;BMP180;6932;51.438;5.470;2022-11-20T14:31:55;100179.00;;;11.80
15079;BMP180;6932;51.438;5.470;2022-11-20T14:34:27;100186.00;;;11.80
15079;BMP180;6932;51.438;5.470;2022-11-20T14:37:00;100184.00;;;11.80
15079;BMP180;6932;51.438;5.470;2022-11-20T14:39:42;100181.00;;;11.80
15079;BMP180;6932;51.438;5.470;2022-11-20T14:42:25;100182.00;;;11.80
15079;BMP180;6932;51.438;5.470;2022-11-20T14:44:56;100166.00;;;11.80
15079;BMP180;6932;51.438;5.470;2022-11-20T14:47:30;100151.00;;;11.80
15079;BMP180;6932;51.438;5.470;2022-11-20T14:49:58;100162.00;;;11.80
15079;BMP180;6932;51.438;5.470;2022-11-20T14:52:28;100153.00;;;11.80
15079;BMP180;6932;51.438;5.470;2022-11-20T14:54:57;100145.00;;;11.80
15079;BMP180;6932;51.438;5.470;2022-11-20T14:57:36;100131.00;;;11.80
15079;BMP180;6932;51.438;5.470;2022-11-20T15:02:49;100120.00;;;11.80
15079;BMP180;6932;51.438;5.470;2022-11-20T15:05:18;100116.00;;;11.80
15079;BMP180;6932;51.438;5.470;2022-11-20T15:07:49;100098.00;;;11.80
15079;BMP180;6932;51.438;5.470;2022-11-20T15:10:27;100085.00;;;11.80
15079;BMP180;6932;51.438;5.470;2022-11-20T15:13:02;100091.00;;;11.80
15079;BMP180;6932;51.438;5.470;2022-11-20T15:15:56;100093.00;;;11.80
15079;BMP180;6932;51.438;5.470;2022-11-20T15:20:55;100082.00;;;11.80
15079;BMP180;6932;51.438;5.470;2022-11-20T15:23:23;100084.00;;;11.80
15079;BMP180;6932;51.438;5.470;2022-11-20T15:25:52;100084.00;;;11.80
15079;BMP180;6932;51.438;5.470;2022-11-20T15:28:44;100067.00;;;11.80
15079;BMP180;6932;51.438;5.470;2022-11-20T15:31:20;100063.00;;;11.80
15079;BMP180;6932;51.438;5.470;2022-11-20T15:33:50;100062.00;;;11.80
15079;BMP180;6932;51.438;5.470;2022-11-20T15:36:16;100054.00;;;11.80
15079;BMP180;6932;51.438;5.470;2022-11-20T15:38:45;100050.00;;;11.80
15079;BMP180;6932;51.438;5.470;2022-11-20T15:41:11;100048.00;;;11.80
15079;BMP180;6932;51.438;5.470;2022-11-20T15:43:38;100036.00;;;11.80
15079;BMP180;6932;51.438;5.470;2022-11-20T15:46:14;100046.00;;;11.90
15079;BMP180;6932;51.438;5.470;2022-11-20T15:48:45;100038.00;;;11.90
15079;BMP180;6932;51.438;5.470;2022-11-20T15:51:27;100034.00;;;11.90